10  °C
Temperature
0  °C
  Dewpoint
50  %
   Humidity
Temp | Dewpoint | Humidity
10  km/h
Wind Speed
6  mph
Wind Speed
5  kts
Wind Speed
80°
Due East

Wind Speed
Partly Cloudy
Conditions
Pressure 1029.92 (hPa) - 30.41 (in)
Visibility 6.2 (mi) - 10.0 (km)

Current Conditions
EGBJ
Location 6km (3.2mi)
Metar :EGBJ 161550Z 08005KT 9999 FEW045 BKN040 10/M00 Q1030
Fri 16th April 15:50 pm

Airport
https://www.checkwx.com/
  Metar Aviation API Data Provided by https://www.checkwx.com/ CSS/SVG/PHP scripts by weather34.com © 2015-2021